Time;durP1;ratioP1;P1;durP2;ratioP2;P2;SDS_P1;SDS_P2;PMS_P1;PMS_P2;Temp;Humidity;BMP_temperature;BMP_pressure;BME280_temperature;BME280_humidity;BME280_pressure;Samples;Min_cycle;Max_cycle;Signal;HPM_P1;HPM_P2
2023/05/21 00:04:34;;;;;;;19.60;17.70;;;22.40;63.60;;;;;;4921303;55;21002;-38
2023/05/21 00:09:37;;;;;;;19.08;17.10;;;22.30;63.50;;;;;;4740348;58;21014;-36
2023/05/21 00:14:38;;;;;;;20.35;18.17;;;22.40;63.60;;;;;;4740071;59;21451;-35
2023/05/21 00:19:39;;;;;;;20.33;18.33;;;22.40;63.50;;;;;;4835014;55;21049;-35
2023/05/21 00:24:40;;;;;;;19.40;17.40;;;22.40;63.50;;;;;;4766886;55;21143;-29
2023/05/21 00:29:40;;;;;;;19.55;17.60;;;22.40;63.60;;;;;;4799261;55;21464;-35
2023/05/21 00:34:41;;;;;;;19.33;17.42;;;22.40;63.60;;;;;;4749295;55;21029;-36
2023/05/21 00:39:42;;;;;;;20.05;17.95;;;22.30;63.50;;;;;;4813242;55;21689;-37
2023/05/21 00:44:44;;;;;;;19.15;17.25;;;22.40;63.60;;;;;;4802618;55;21018;-39
2023/05/21 00:49:47;;;;;;;18.98;16.98;;;22.40;63.40;;;;;;4740425;59;21582;-36
2023/05/21 00:54:51;;;;;;;20.40;18.30;;;22.40;63.50;;;;;;4745303;55;21538;-33
2023/05/21 00:59:53;;;;;;;19.10;17.25;;;22.30;63.60;;;;;;4744638;55;21006;-34
2023/05/21 01:04:54;;;;;;;19.10;17.20;;;22.40;63.70;;;;;;4753183;55;21186;-34
2023/05/21 01:09:55;;;;;;;18.75;16.85;;;22.30;63.60;;;;;;4779198;55;21559;-35
2023/05/21 01:14:58;;;;;;;18.90;17.00;;;22.30;63.70;;;;;;4775647;55;21021;-37
2023/05/21 01:20:00;;;;;;;17.90;16.15;;;22.40;63.70;;;;;;4745824;55;21030;-37
2023/05/21 01:25:02;;;;;;;18.87;17.00;;;22.40;63.70;;;;;;4748506;55;21020;-34
2023/05/21 01:30:04;;;;;;;17.58;15.77;;;22.40;63.70;;;;;;5139026;54;21583;-37
2023/05/21 01:35:35;;;;;;;18.70;16.80;;;22.30;63.70;;;;;;4832136;55;21487;-36
2023/05/21 01:41:18;;;;;;;18.40;16.50;;;22.30;63.50;;;;;;4775335;55;21021;-37
2023/05/21 01:46:24;;;;;;;18.23;16.42;;;22.30;63.70;;;;;;4772386;55;21068;-41
2023/05/21 01:51:26;;;;;;;18.62;16.75;;;22.30;63.60;;;;;;4785674;55;21539;-39
2023/05/21 01:56:27;;;;;;;18.02;16.12;;;22.30;63.60;;;;;;4771507;55;21108;-36
2023/05/21 02:01:30;;;;;;;18.55;16.67;;;22.40;63.70;;;;;;5017343;55;21586;-38
2023/05/21 02:06:31;;;;;;;18.37;16.58;;;22.30;63.70;;;;;;4740306;55;21117;-35
2023/05/21 02:11:33;;;;;;;17.55;15.82;;;22.40;63.70;;;;;;4841819;55;21072;-36
2023/05/21 02:16:34;;;;;;;17.85;16.15;;;22.30;63.70;;;;;;4835843;55;21017;-36
2023/05/21 02:21:35;;;;;;;17.87;16.08;;;22.30;63.70;;;;;;4855153;55;21053;-31
2023/05/21 02:26:36;;;;;;;17.87;16.08;;;22.30;63.70;;;;;;4756139;55;21017;-35
2023/05/21 02:31:37;;;;;;;17.02;15.32;;;22.30;63.70;;;;;;4740368;55;21082;-36
2023/05/21 02:36:40;;;;;;;17.15;15.45;;;22.30;63.70;;;;;;4759101;55;21149;-35
2023/05/21 02:41:41;;;;;;;17.20;15.52;;;22.30;63.70;;;;;;4744659;55;21176;-38
2023/05/21 02:46:41;;;;;;;17.35;15.63;;;22.30;63.60;;;;;;4759259;55;21049;-36
2023/05/21 02:51:42;;;;;;;17.52;15.82;;;22.30;63.60;;;;;;4740401;58;21057;-34
2023/05/21 02:56:43;;;;;;;16.58;14.87;;;22.30;63.70;;;;;;4740239;59;21349;-38
2023/05/21 03:01:44;;;;;;;18.55;16.65;;;22.30;63.70;;;;;;4907079;55;21038;-33
2023/05/21 03:06:45;;;;;;;17.58;15.88;;;22.30;63.70;;;;;;4749698;54;21077;-38
2023/05/21 03:11:46;;;;;;;16.65;15.05;;;22.30;63.60;;;;;;4969439;55;21487;-39
2023/05/21 03:16:47;;;;;;;17.00;15.30;;;22.30;63.70;;;;;;4757233;55;21097;-38
2023/05/21 03:21:49;;;;;;;17.62;15.82;;;22.30;63.60;;;;;;4741615;55;21152;-36
2023/05/21 03:26:50;;;;;;;16.37;14.68;;;22.30;63.70;;;;;;4794761;55;21107;-40
2023/05/21 03:31:52;;;;;;;16.73;15.13;;;22.30;63.60;;;;;;4959312;55;21479;-35
2023/05/21 03:36:53;;;;;;;15.93;14.38;;;22.30;63.60;;;;;;4740228;55;21456;-35
2023/05/21 03:41:54;;;;;;;15.88;14.38;;;22.30;63.60;;;;;;4754514;55;21041;-38
2023/05/21 03:46:55;;;;;;;16.48;14.75;;;22.30;63.60;;;;;;4740519;58;21013;-36
2023/05/21 03:51:57;;;;;;;15.85;14.23;;;22.30;63.60;;;;;;4839965;55;21017;-36
2023/05/21 03:56:58;;;;;;;15.30;13.80;;;22.30;63.60;;;;;;4852242;55;21440;-36
2023/05/21 04:01:59;;;;;;;16.50;14.85;;;22.30;63.60;;;;;;4767468;54;21038;-35
2023/05/21 04:07:00;;;;;;;16.80;15.13;;;22.30;63.60;;;;;;4769083;55;21511;-35
2023/05/21 04:12:01;;;;;;;17.10;15.40;;;22.30;63.70;;;;;;4751782;55;21026;-35
2023/05/21 04:17:06;;;;;;;15.85;14.35;;;22.30;63.70;;;;;;4789522;55;21463;-35
2023/05/21 04:22:09;;;;;;;15.23;13.73;;;22.30;63.60;;;;;;4772250;55;21124;-32
2023/05/21 04:27:09;;;;;;;16.12;14.52;;;22.30;63.60;;;;;;4740223;59;21267;-38
2023/05/21 04:32:10;;;;;;;15.00;13.50;;;22.30;63.60;;;;;;4740394;59;21010;-34
2023/05/21 04:37:11;;;;;;;16.08;14.48;;;22.30;63.60;;;;;;4780037;55;20997;-37
2023/05/21 04:42:12;;;;;;;15.80;14.30;;;22.30;63.60;;;;;;4972497;54;21535;-35
2023/05/21 04:47:13;;;;;;;15.90;14.40;;;22.30;63.50;;;;;;4740239;59;21002;-36
2023/05/21 04:52:14;;;;;;;15.60;14.02;;;22.30;63.50;;;;;;4740385;59;21895;-39
2023/05/21 04:57:17;;;;;;;16.37;14.20;;;22.30;63.50;;;;;;4830269;55;21078;-34
2023/05/21 05:02:18;;;;;;;15.90;14.40;;;22.30;63.50;;;;;;4980072;55;22356;-36
2023/05/21 05:07:18;;;;;;;14.70;13.30;;;22.30;63.50;;;;;;4787978;55;21030;-39
2023/05/21 05:12:19;;;;;;;15.27;13.80;;;22.30;63.50;;;;;;4752142;55;21021;-35
2023/05/21 05:17:20;;;;;;;14.55;13.07;;;22.30;63.50;;;;;;4910677;55;21483;-37
2023/05/21 05:22:21;;;;;;;14.93;13.50;;;22.30;63.50;;;;;;4739383;59;21029;-35
2023/05/21 05:27:22;;;;;;;15.40;13.90;;;22.30;63.40;;;;;;4767835;55;21484;-36
2023/05/21 05:32:23;;;;;;;15.80;14.20;;;22.20;63.40;;;;;;4740053;59;21021;-35
2023/05/21 05:37:23;;;;;;;13.90;12.50;;;22.20;63.50;;;;;;4790807;55;21547;-36
2023/05/21 05:42:24;;;;;;;15.27;13.77;;;22.30;63.50;;;;;;4739197;59;21041;-35
2023/05/21 05:47:25;;;;;;;15.10;13.55;;;22.20;63.50;;;;;;4916338;55;21057;-35
2023/05/21 05:52:26;;;;;;;15.00;13.50;;;22.20;63.40;;;;;;4787884;55;21049;-35
2023/05/21 05:57:27;;;;;;;14.32;12.98;;;22.20;63.40;;;;;;4818945;55;21542;-37
2023/05/21 06:02:28;;;;;;;14.38;12.98;;;22.20;63.40;;;;;;4739305;59;21017;-35
2023/05/21 06:07:29;;;;;;;15.95;14.40;;;22.30;63.40;;;;;;4795919;55;21575;-36
2023/05/21 06:12:30;;;;;;;14.40;13.00;;;22.20;63.40;;;;;;4901339;55;21069;-35
2023/05/21 06:17:31;;;;;;;14.50;13.00;;;22.30;63.50;;;;;;4806815;55;21009;-36
2023/05/21 06:22:31;;;;;;;15.73;14.18;;;22.20;63.30;;;;;;4747651;55;21096;-34
2023/05/21 06:27:32;;;;;;;14.02;12.73;;;22.30;63.40;;;;;;4971147;55;21013;-35
2023/05/21 06:32:33;;;;;;;15.10;13.60;;;22.30;63.40;;;;;;4740442;59;21001;-35
2023/05/21 06:37:34;;;;;;;14.95;13.38;;;22.30;63.40;;;;;;4764723;55;21033;-34
2023/05/21 06:42:35;;;;;;;14.60;13.20;;;22.30;63.40;;;;;;4797343;54;21085;-35
2023/05/21 06:47:36;;;;;;;14.40;13.00;;;22.30;63.40;;;;;;4900982;55;21061;-36
2023/05/21 06:52:36;;;;;;;14.30;13.00;;;22.30;63.40;;;;;;4841241;55;21906;-36
2023/05/21 06:57:37;;;;;;;14.50;13.07;;;22.30;63.30;;;;;;4865304;55;21039;-33
2023/05/21 07:02:38;;;;;;;14.90;13.40;;;22.30;63.30;;;;;;4740209;59;21132;-39
2023/05/21 07:07:39;;;;;;;14.52;13.00;;;22.30;63.30;;;;;;4748391;55;21008;-36
2023/05/21 07:12:40;;;;;;;13.77;12.48;;;22.30;63.30;;;;;;4831342;55;21176;-36
2023/05/21 07:17:41;;;;;;;15.23;13.70;;;22.30;63.30;;;;;;4747203;55;21045;-34
2023/05/21 07:22:43;;;;;;;16.20;14.60;;;22.30;63.30;;;;;;4885583;55;21531;-38
2023/05/21 07:27:43;;;;;;;15.73;13.93;;;22.30;63.30;;;;;;4782230;54;21527;-36
2023/05/21 07:32:44;;;;;;;14.32;12.98;;;22.30;63.40;;;;;;4799551;55;21025;-37
2023/05/21 07:37:46;;;;;;;15.60;14.02;;;22.30;63.30;;;;;;4740504;59;21014;-36
2023/05/21 07:42:47;;;;;;;14.30;12.90;;;22.30;63.30;;;;;;4786154;55;21514;-37
2023/05/21 07:47:48;;;;;;;14.80;13.38;;;22.30;63.20;;;;;;4748372;55;21017;-36
2023/05/21 07:52:49;;;;;;;15.25;13.82;;;22.30;63.20;;;;;;4978594;54;21551;-32
2023/05/21 07:57:51;;;;;;;14.40;13.00;;;22.30;63.30;;;;;;4810106;55;21029;-35
2023/05/21 08:02:52;;;;;;;14.93;13.43;;;22.30;63.90;;;;;;4829407;55;21094;-35
2023/05/21 08:07:52;;;;;;;16.17;14.57;;;22.30;63.20;;;;;;4740191;59;21097;-35
2023/05/21 08:12:53;;;;;;;15.27;13.77;;;22.30;63.20;;;;;;4739927;59;21024;-37
2023/05/21 08:17:54;;;;;;;14.25;12.85;;;22.30;63.20;;;;;;4747702;55;21519;-37
2023/05/21 08:22:55;;;;;;;14.75;13.25;;;22.30;63.30;;;;;;4754457;55;21111;-39
2023/05/21 08:27:56;;;;;;;15.80;14.18;;;22.30;63.20;;;;;;4806776;55;21251;-37
2023/05/21 08:32:57;;;;;;;14.68;13.27;;;22.30;63.20;;;;;;4752658;55;21080;-35
2023/05/21 08:37:58;;;;;;;15.45;13.95;;;22.40;63.30;;;;;;4742305;55;21575;-37
2023/05/21 08:43:00;;;;;;;13.88;12.57;;;22.30;63.30;;;;;;4806472;54;21033;-39
2023/05/21 08:48:02;;;;;;;15.05;13.55;;;22.30;63.20;;;;;;4772462;55;21358;-34
2023/05/21 08:53:03;;;;;;;15.77;14.25;;;22.30;63.20;;;;;;4776281;55;21093;-36
2023/05/21 08:58:04;;;;;;;14.87;13.38;;;22.30;63.20;;;;;;4794687;55;21540;-36
2023/05/21 09:03:09;;;;;;;15.57;14.02;;;22.40;63.20;;;;;;4795468;55;21574;-37
2023/05/21 09:08:18;;;;;;;14.20;12.87;;;22.40;63.20;;;;;;4755607;55;21053;-35
2023/05/21 09:13:20;;;;;;;14.93;13.45;;;22.30;63.20;;;;;;4739930;59;21038;-38
2023/05/21 09:18:21;;;;;;;14.15;12.85;;;22.30;63.20;;;;;;4764733;55;21101;-34
2023/05/21 09:23:21;;;;;;;13.65;12.37;;;22.40;63.20;;;;;;4739037;59;21045;-36
2023/05/21 09:28:24;;;;;;;14.60;13.23;;;22.40;63.10;;;;;;4752334;55;21096;-36
2023/05/21 09:33:28;;;;;;;14.35;12.95;;;22.40;63.10;;;;;;4740076;58;21811;-36
2023/05/21 09:38:32;;;;;;;15.40;13.80;;;22.40;63.10;;;;;;4770111;55;21026;-37
2023/05/21 09:43:33;;;;;;;14.70;13.30;;;22.40;63.10;;;;;;4739326;59;21029;-37
2023/05/21 09:48:41;;;;;;;14.30;12.90;;;22.50;62.90;;;;;;4816989;55;21475;-36
2023/05/21 09:53:58;;;;;;;14.68;13.18;;;22.50;62.80;;;;;;4741853;55;21579;-29
2023/05/21 09:59:02;;;;;;;14.38;12.98;;;22.50;62.80;;;;;;4859438;55;21504;-36
2023/05/21 10:04:07;;;;;;;15.45;13.95;;;22.50;62.70;;;;;;4822434;55;21544;-36
2023/05/21 10:09:10;;;;;;;15.00;13.38;;;22.50;62.80;;;;;;4785390;55;21595;-36
2023/05/21 10:14:18;;;;;;;14.35;12.95;;;22.50;62.80;;;;;;4740028;55;21638;-35
2023/05/21 10:19:20;;;;;;;14.05;12.75;;;22.50;62.80;;;;;;4753902;55;21643;-37
2023/05/21 10:24:22;;;;;;;14.60;13.20;;;22.50;62.90;;;;;;4795254;55;21093;-37
2023/05/21 10:29:24;;;;;;;14.73;13.38;;;22.50;62.90;;;;;;4739931;55;21057;-37
2023/05/21 10:34:27;;;;;;;14.32;12.93;;;22.50;62.90;;;;;;4801000;55;21468;-37
2023/05/21 10:39:29;;;;;;;14.80;13.40;;;22.50;62.90;;;;;;4816507;55;21176;-33
2023/05/21 10:47:44;;;;;;;14.30;13.00;;;22.50;62.80;;;;;;4871199;55;21575;-35
2023/05/21 10:54:56;;;;;;;14.43;13.13;;;22.50;62.90;;;;;;4740571;55;21018;-36
2023/05/21 10:59:58;;;;;;;14.77;13.38;;;22.50;62.90;;;;;;4907744;55;20982;-35
2023/05/21 11:05:00;;;;;;;14.95;13.55;;;22.50;62.80;;;;;;4808811;55;21025;-35
2023/05/21 11:11:45;;;;;;;14.13;12.82;;;22.50;62.80;;;;;;4792395;55;21065;-36
2023/05/21 11:16:46;;;;;;;12.95;11.75;;;22.50;62.80;;;;;;4740438;59;21491;-35
2023/05/21 11:21:50;;;;;;;14.18;12.80;;;22.50;62.90;;;;;;4977106;55;21021;-36
2023/05/21 11:27:03;;;;;;;14.27;12.90;;;22.50;62.80;;;;;;4739823;59;21009;-37
2023/05/21 11:32:04;;;;;;;14.60;13.20;;;22.50;62.80;;;;;;4740397;59;21428;-36
2023/05/21 11:39:14;;;;;;;15.00;13.52;;;22.50;62.70;;;;;;4783617;55;21065;-35
2023/05/21 11:44:15;;;;;;;14.75;13.30;;;22.50;62.80;;;;;;4822216;55;21014;-31
2023/05/21 11:49:16;;;;;;;14.02;12.73;;;22.50;62.80;;;;;;4780465;55;21010;-36
2023/05/21 11:54:18;;;;;;;14.63;13.20;;;22.50;62.80;;;;;;4740266;59;21099;-38
2023/05/21 11:59:21;;;;;;;14.48;13.07;;;22.50;62.80;;;;;;4819183;55;21514;-38
2023/05/21 12:04:22;;;;;;;13.75;12.45;;;22.50;62.80;;;;;;4741676;55;21005;-36
2023/05/21 12:09:24;;;;;;;13.93;12.63;;;22.50;62.80;;;;;;4803411;54;21567;-36
2023/05/21 12:14:25;;;;;;;14.05;12.70;;;22.50;62.70;;;;;;4740719;59;21073;-35
2023/05/21 12:19:26;;;;;;;13.75;12.45;;;22.50;62.90;;;;;;4838360;55;21033;-37
2023/05/21 12:24:27;;;;;;;13.32;12.13;;;22.50;62.80;;;;;;4739007;59;21066;-35
2023/05/21 12:29:30;;;;;;;13.88;12.57;;;22.50;62.80;;;;;;4807528;55;21165;-35
2023/05/21 12:34:51;;;;;;;13.93;12.63;;;22.50;62.80;;;;;;4764588;55;21884;-38
2023/05/21 12:39:53;;;;;;;14.57;13.13;;;22.50;62.80;;;;;;4760905;55;21638;-37
2023/05/21 12:44:55;;;;;;;13.90;12.60;;;22.50;62.70;;;;;;4925847;55;21009;-37
2023/05/21 12:49:57;;;;;;;14.23;12.88;;;22.50;62.80;;;;;;4742431;55;21009;-35
2023/05/21 12:54:58;;;;;;;13.57;12.27;;;22.50;62.80;;;;;;4811174;55;21021;-35
2023/05/21 13:00:00;;;;;;;14.02;12.68;;;22.50;62.70;;;;;;4773078;55;21009;-35
2023/05/21 13:05:03;;;;;;;14.38;13.02;;;22.50;62.70;;;;;;4740015;59;21121;-37
2023/05/21 13:10:06;;;;;;;14.68;13.18;;;22.50;62.80;;;;;;4751272;55;21061;-34
2023/05/21 13:15:07;;;;;;;14.45;13.05;;;22.50;62.90;;;;;;4858029;55;21283;-35
2023/05/21 13:20:15;;;;;;;14.02;12.73;;;22.50;62.80;;;;;;4831402;55;21057;-36
2023/05/21 13:25:23;;;;;;;14.40;13.00;;;22.60;62.80;;;;;;4750715;55;21009;-36
2023/05/21 13:30:24;;;;;;;14.55;13.15;;;22.60;62.80;;;;;;4789195;55;21479;-35
2023/05/21 13:35:25;;;;;;;13.95;12.65;;;22.50;62.80;;;;;;4834539;55;20986;-35
2023/05/21 13:40:26;;;;;;;14.65;13.32;;;22.60;62.80;;;;;;4829315;55;21581;-38
2023/05/21 13:45:27;;;;;;;14.13;12.80;;;22.50;62.80;;;;;;4857178;54;21082;-36
2023/05/21 13:50:28;;;;;;;15.00;13.57;;;22.60;62.80;;;;;;4740578;55;21535;-35
2023/05/21 13:55:29;;;;;;;14.10;12.80;;;22.60;62.80;;;;;;4740170;59;21014;-37
2023/05/21 14:00:30;;;;;;;14.50;13.10;;;22.60;62.80;;;;;;4740121;58;21081;-35
2023/05/21 14:05:31;;;;;;;14.00;12.70;;;22.50;62.70;;;;;;4798191;55;21061;-35
2023/05/21 14:10:32;;;;;;;13.85;12.55;;;22.50;62.80;;;;;;4795786;55;21018;-36
2023/05/21 14:15:32;;;;;;;14.68;13.27;;;22.50;62.80;;;;;;4793940;55;21456;-35
2023/05/21 14:20:33;;;;;;;14.30;12.90;;;22.50;62.80;;;;;;4790013;54;21033;-35
2023/05/21 14:25:34;;;;;;;14.85;13.45;;;22.50;62.80;;;;;;4822957;55;21017;-36
2023/05/21 14:30:35;;;;;;;14.48;13.18;;;22.50;62.80;;;;;;4889084;55;21009;-36
2023/05/21 14:35:36;;;;;;;14.43;13.02;;;22.50;62.70;;;;;;4782215;55;21065;-36
2023/05/21 14:40:37;;;;;;;14.95;13.52;;;22.60;62.70;;;;;;4739762;59;21507;-35
2023/05/21 14:45:38;;;;;;;15.07;13.57;;;22.60;62.70;;;;;;4740042;59;21009;-36
2023/05/21 14:50:39;;;;;;;15.10;13.60;;;22.60;62.60;;;;;;4745157;55;21463;-35
2023/05/21 14:55:40;;;;;;;14.90;13.48;;;22.60;62.60;;;;;;4797726;55;21061;-34
2023/05/21 15:00:41;;;;;;;15.07;13.60;;;22.60;62.50;;;;;;5032076;55;21010;-36
2023/05/21 15:05:42;;;;;;;15.30;13.80;;;22.60;62.50;;;;;;4873249;55;21044;-35
2023/05/21 15:10:43;;;;;;;14.23;12.82;;;22.60;62.60;;;;;;4876556;55;21057;-35
2023/05/21 15:15:43;;;;;;;16.25;14.55;;;22.50;62.70;;;;;;4795039;55;21520;-35
2023/05/21 15:20:44;;;;;;;15.25;13.82;;;22.60;62.70;;;;;;4807883;55;21070;-37
2023/05/21 15:25:45;;;;;;;14.23;12.82;;;22.60;62.60;;;;;;4822255;55;21532;-35
2023/05/21 15:30:46;;;;;;;14.57;13.18;;;22.60;62.80;;;;;;4762190;55;21073;-35
2023/05/21 15:35:47;;;;;;;14.95;13.55;;;22.60;62.70;;;;;;4739908;59;21073;-35
2023/05/21 15:40:47;;;;;;;14.35;13.00;;;22.60;62.80;;;;;;4785074;55;21206;-34
2023/05/21 15:45:48;;;;;;;14.55;13.15;;;22.60;62.70;;;;;;4742883;55;21025;-33
2023/05/21 15:50:49;;;;;;;13.80;12.50;;;22.60;62.70;;;;;;4969652;55;21022;-37
2023/05/21 15:55:50;;;;;;;14.27;12.88;;;22.60;62.80;;;;;;4766123;55;21523;-38
2023/05/21 16:00:51;;;;;;;13.70;12.40;;;22.60;62.70;;;;;;4896967;54;21116;-30
2023/05/21 16:05:52;;;;;;;14.35;13.02;;;22.60;62.70;;;;;;4898844;55;21476;-39
2023/05/21 16:10:53;;;;;;;14.05;12.75;;;22.60;63.50;;;;;;4740315;55;21109;-34
2023/05/21 16:15:53;;;;;;;14.40;13.00;;;22.60;62.60;;;;;;4764895;55;21132;-36
2023/05/21 16:20:55;;;;;;;13.57;12.27;;;22.60;62.60;;;;;;4766454;55;21021;-31
2023/05/21 16:25:56;;;;;;;14.10;12.70;;;22.60;62.50;;;;;;4806896;55;20990;-37
2023/05/21 16:30:57;;;;;;;14.65;13.20;;;22.60;62.50;;;;;;4801494;55;21467;-37
2023/05/21 16:35:57;;;;;;;14.00;12.70;;;22.60;62.50;;;;;;4739809;59;21057;-36
2023/05/21 16:40:58;;;;;;;14.35;13.05;;;22.60;62.50;;;;;;4932590;55;21122;-37
2023/05/21 16:46:00;;;;;;;14.13;12.73;;;22.60;62.50;;;;;;4782229;55;21570;-35
2023/05/21 16:51:01;;;;;;;13.55;12.35;;;22.60;62.50;;;;;;4773196;55;21538;-37
2023/05/21 16:56:02;;;;;;;13.52;12.25;;;22.60;62.40;;;;;;4909246;55;21077;-36
2023/05/21 17:01:03;;;;;;;14.10;12.70;;;22.60;62.50;;;;;;4807116;55;21030;-36
2023/05/21 17:06:03;;;;;;;13.70;12.40;;;22.60;62.40;;;;;;4786765;55;21061;-36
2023/05/21 17:11:04;;;;;;;13.48;12.27;;;22.60;62.50;;;;;;4865691;55;21010;-33
2023/05/21 17:16:05;;;;;;;13.52;12.30;;;22.60;62.60;;;;;;4775553;55;21100;-37
2023/05/21 17:21:06;;;;;;;13.82;12.52;;;22.60;62.50;;;;;;4748186;55;21076;-35
2023/05/21 17:26:08;;;;;;;14.00;12.40;;;22.60;62.50;;;;;;4808034;54;21536;-35
2023/05/21 17:31:09;;;;;;;13.68;12.37;;;22.70;62.40;;;;;;4824141;55;21487;-37
2023/05/21 17:36:12;;;;;;;13.60;12.30;;;22.60;62.50;;;;;;4816637;55;21010;-38
2023/05/21 17:41:15;;;;;;;13.75;12.45;;;22.70;62.40;;;;;;4747261;55;21599;-40
2023/05/21 17:46:17;;;;;;;12.75;11.55;;;22.60;62.50;;;;;;4775735;55;21448;-36
2023/05/21 17:51:17;;;;;;;13.88;12.57;;;22.70;62.50;;;;;;4783992;55;21013;-35
2023/05/21 17:56:18;;;;;;;13.90;12.60;;;22.60;62.60;;;;;;4833131;55;21531;-36
2023/05/21 18:01:19;;;;;;;13.60;12.30;;;22.60;62.50;;;;;;4848064;55;21029;-34
2023/05/21 18:06:20;;;;;;;13.88;12.57;;;22.60;62.60;;;;;;4784458;54;21073;-35
2023/05/21 18:11:21;;;;;;;13.60;12.30;;;22.60;62.60;;;;;;4859897;55;21523;-35
2023/05/21 18:16:22;;;;;;;14.00;12.65;;;22.60;62.70;;;;;;4811697;55;21492;-37
2023/05/21 18:21:25;;;;;;;14.35;12.95;;;22.60;62.70;;;;;;4792667;55;21002;-37
2023/05/21 18:26:25;;;;;;;13.75;12.45;;;22.60;62.60;;;;;;4742527;55;21535;-38
2023/05/21 18:31:26;;;;;;;14.38;13.05;;;22.60;62.60;;;;;;4756853;55;21132;-35
2023/05/21 18:36:27;;;;;;;13.95;12.65;;;22.60;62.70;;;;;;4818586;55;21495;-36
2023/05/21 18:41:28;;;;;;;13.48;12.25;;;22.60;62.70;;;;;;4986420;55;21526;-36
2023/05/21 18:46:30;;;;;;;15.13;13.60;;;22.60;62.70;;;;;;4783722;55;21463;-35
2023/05/21 18:51:31;;;;;;;13.73;12.43;;;22.60;62.60;;;;;;4763301;55;21511;-37
2023/05/21 18:56:32;;;;;;;14.07;12.73;;;22.60;62.70;;;;;;4762585;55;21053;-31
2023/05/21 19:01:33;;;;;;;15.07;13.62;;;22.60;62.60;;;;;;4769577;55;22124;-35
2023/05/21 19:06:33;;;;;;;14.18;12.77;;;22.70;62.60;;;;;;4780414;55;21534;-36
2023/05/21 19:11:36;;;;;;;14.02;12.73;;;22.60;62.70;;;;;;4763759;55;21006;-35
2023/05/21 19:16:37;;;;;;;14.52;13.23;;;22.60;62.70;;;;;;4786449;55;21475;-33
2023/05/21 19:21:38;;;;;;;14.38;12.98;;;22.60;62.60;;;;;;4838187;55;21085;-35
2023/05/21 19:26:39;;;;;;;13.77;12.50;;;22.60;62.70;;;;;;4802967;55;21029;-36
2023/05/21 19:31:41;;;;;;;14.35;13.05;;;22.60;62.60;;;;;;4836414;55;21565;-38
2023/05/21 19:36:42;;;;;;;13.88;12.57;;;22.70;62.70;;;;;;4802873;55;21448;-37
2023/05/21 19:41:43;;;;;;;14.13;12.82;;;22.60;62.70;;;;;;4837424;55;21139;-35
2023/05/21 19:46:44;;;;;;;13.98;12.68;;;22.60;62.60;;;;;;4743310;55;21007;-35
2023/05/21 19:51:45;;;;;;;14.13;12.82;;;22.70;62.70;;;;;;4817429;55;21056;-35
2023/05/21 19:56:46;;;;;;;14.73;13.25;;;22.70;62.70;;;;;;4788201;55;21040;-34
2023/05/21 20:01:47;;;;;;;14.85;13.45;;;22.60;62.80;;;;;;4743723;55;21070;-35
2023/05/21 20:06:48;;;;;;;14.27;12.93;;;22.60;62.70;;;;;;4849515;55;21065;-32
2023/05/21 20:11:49;;;;;;;15.35;12.90;;;22.60;63.40;;;;;;4816427;55;21096;-36
2023/05/21 20:16:52;;;;;;;14.93;13.25;;;22.60;62.70;;;;;;4794108;55;21053;-38
2023/05/21 20:21:53;;;;;;;14.32;12.93;;;22.60;62.80;;;;;;4801197;55;21559;-35
2023/05/21 20:26:53;;;;;;;14.73;13.32;;;22.60;63.00;;;;;;4759659;55;21022;-36
2023/05/21 20:31:54;;;;;;;14.50;13.10;;;22.60;63.00;;;;;;4828594;55;21037;-36
2023/05/21 20:36:58;;;;;;;13.70;12.40;;;22.50;63.10;;;;;;4791190;55;21507;-37
2023/05/21 20:41:59;;;;;;;14.05;12.63;;;22.50;63.20;;;;;;4851050;54;21406;-35
2023/05/21 20:47:03;;;;;;;13.60;12.30;;;22.50;63.30;;;;;;4780487;55;22419;-37
2023/05/21 20:52:05;;;;;;;14.68;13.18;;;22.50;63.20;;;;;;4868164;55;21495;-37
2023/05/21 20:57:07;;;;;;;13.57;12.27;;;22.50;63.30;;;;;;4740597;59;21530;-37
2023/05/21 21:02:12;;;;;;;14.35;12.95;;;22.50;63.30;;;;;;4747940;55;21475;-36
2023/05/21 21:07:17;;;;;;;13.73;12.43;;;22.50;63.40;;;;;;4740293;59;21498;-36
2023/05/21 21:12:18;;;;;;;13.90;12.60;;;22.50;63.40;;;;;;4741076;55;21013;-37
2023/05/21 21:17:19;;;;;;;14.60;13.20;;;22.50;63.30;;;;;;4768090;55;21057;-37
2023/05/21 21:22:20;;;;;;;14.35;12.90;;;22.50;63.30;;;;;;4739493;59;21172;-34
2023/05/21 21:27:21;;;;;;;13.07;11.80;;;22.50;63.40;;;;;;4871174;55;21623;-37
2023/05/21 21:32:22;;;;;;;14.20;12.80;;;22.50;63.30;;;;;;4788275;55;21061;-37
2023/05/21 21:37:22;;;;;;;13.62;12.30;;;22.50;63.40;;;;;;4833224;55;21527;-37
2023/05/21 21:42:23;;;;;;;14.65;13.20;;;22.50;63.20;;;;;;4800380;54;21061;-37
2023/05/21 21:47:24;;;;;;;14.23;12.85;;;22.50;63.40;;;;;;4793622;55;21121;-37
2023/05/21 21:52:28;;;;;;;15.32;13.82;;;22.50;63.40;;;;;;4740103;59;21495;-34
2023/05/21 21:57:28;;;;;;;14.27;12.98;;;22.50;63.40;;;;;;4892154;55;21571;-34
2023/05/21 22:02:29;;;;;;;13.73;12.43;;;22.50;63.40;;;;;;5046537;55;21066;-35
2023/05/21 22:07:30;;;;;;;14.02;12.73;;;22.50;63.40;;;;;;4850671;55;21550;-34
2023/05/21 22:12:32;;;;;;;14.60;13.20;;;22.50;63.40;;;;;;4795686;54;21121;-34
2023/05/21 22:17:34;;;;;;;14.23;12.93;;;22.50;63.50;;;;;;4840951;55;21463;-35
2023/05/21 22:22:34;;;;;;;14.35;12.98;;;22.50;63.50;;;;;;4742352;55;21077;-36
2023/05/21 22:27:35;;;;;;;13.68;12.37;;;22.50;63.40;;;;;;4758400;55;21072;-36
2023/05/21 22:32:36;;;;;;;13.38;12.07;;;22.50;63.40;;;;;;4837423;55;21026;-36
2023/05/21 22:37:41;;;;;;;14.02;12.63;;;22.50;63.40;;;;;;4744915;55;21002;-35
2023/05/21 22:42:43;;;;;;;13.55;12.25;;;22.50;63.40;;;;;;4885387;54;21105;-39
2023/05/21 22:47:44;;;;;;;13.73;12.40;;;22.50;63.50;;;;;;4740298;57;21520;-35
2023/05/21 22:52:45;;;;;;;13.77;12.37;;;22.50;63.40;;;;;;4803200;55;21306;-34
2023/05/21 22:57:46;;;;;;;13.95;12.65;;;22.50;63.40;;;;;;5025684;54;21906;-35
2023/05/21 23:02:47;;;;;;;14.60;13.18;;;22.50;63.50;;;;;;5113448;55;21457;-38
2023/05/21 23:07:48;;;;;;;13.55;12.15;;;22.50;63.50;;;;;;5059636;55;21645;-36
2023/05/21 23:12:49;;;;;;;13.50;12.15;;;22.50;63.40;;;;;;4887013;55;21149;-36
2023/05/21 23:17:50;;;;;;;13.57;12.27;;;22.50;63.50;;;;;;4847836;55;21458;-36
2023/05/21 23:22:51;;;;;;;13.90;12.60;;;22.50;63.50;;;;;;4764890;55;21049;-36
2023/05/21 23:27:52;;;;;;;13.25;11.95;;;22.50;63.50;;;;;;4919083;55;21464;-36
2023/05/21 23:32:53;;;;;;;13.50;12.20;;;22.50;63.50;;;;;;4815057;55;21394;-35
2023/05/21 23:37:54;;;;;;;14.00;12.65;;;22.50;63.50;;;;;;4872816;55;21484;-35
2023/05/21 23:42:55;;;;;;;12.77;11.48;;;22.50;63.50;;;;;;4816296;54;21563;-40
2023/05/21 23:47:56;;;;;;;11.65;10.55;;;22.50;63.50;;;;;;4781206;55;21006;-35
2023/05/21 23:52:57;;;;;;;13.15;11.85;;;22.50;63.60;;;;;;4870997;54;21049;-34
2023/05/21 23:57:58;;;;;;;13.15;11.95;;;22.50;63.60;;;;;;4913258;55;21365;-36
